sensor_id;sensor_type;location;lat;lon;timestamp;P1;durP1;ratioP1;P2;durP2;ratioP2
40541;SDS011;49288;52.194;5.676;2023-09-18T00:03:08;60.88;;;29.30;;
40541;SDS011;49288;52.194;5.676;2023-09-18T00:08:11;73.00;;;32.63;;
40541;SDS011;49288;52.194;5.676;2023-09-18T00:13:34;70.50;;;30.65;;
40541;SDS011;49288;52.194;5.676;2023-09-18T00:18:37;72.82;;;33.15;;
40541;SDS011;49288;52.194;5.676;2023-09-18T00:23:39;72.20;;;33.35;;
40541;SDS011;49288;52.194;5.676;2023-09-18T00:28:42;83.75;;;34.92;;
40541;SDS011;49288;52.194;5.676;2023-09-18T00:33:45;91.65;;;38.83;;
40541;SDS011;49288;52.194;5.676;2023-09-18T00:38:48;92.85;;;37.08;;
40541;SDS011;49288;52.194;5.676;2023-09-18T00:43:52;78.05;;;34.78;;
40541;SDS011;49288;52.194;5.676;2023-09-18T00:48:55;89.25;;;39.38;;
40541;SDS011;49288;52.194;5.676;2023-09-18T00:53:57;80.35;;;37.78;;
40541;SDS011;49288;52.194;5.676;2023-09-18T00:59:02;105.72;;;39.58;;
40541;SDS011;49288;52.194;5.676;2023-09-18T01:04:06;106.73;;;38.50;;
40541;SDS011;49288;52.194;5.676;2023-09-18T01:14:25;137.75;;;49.47;;
40541;SDS011;49288;52.194;5.676;2023-09-18T01:19:45;143.88;;;50.03;;
40541;SDS011;49288;52.194;5.676;2023-09-18T01:24:49;160.20;;;56.00;;
40541;SDS011;49288;52.194;5.676;2023-09-18T01:29:51;187.40;;;56.80;;
40541;SDS011;49288;52.194;5.676;2023-09-18T01:34:56;185.27;;;59.20;;
40541;SDS011;49288;52.194;5.676;2023-09-18T01:45:03;198.57;;;58.90;;
40541;SDS011;49288;52.194;5.676;2023-09-18T01:50:07;191.02;;;60.00;;
40541;SDS011;49288;52.194;5.676;2023-09-18T01:55:10;197.13;;;60.60;;
40541;SDS011;49288;52.194;5.676;2023-09-18T02:00:14;199.23;;;62.53;;
40541;SDS011;49288;52.194;5.676;2023-09-18T02:05:18;196.55;;;60.47;;
40541;SDS011;49288;52.194;5.676;2023-09-18T02:10:21;196.18;;;63.35;;
40541;SDS011;49288;52.194;5.676;2023-09-18T02:15:24;202.40;;;63.70;;
40541;SDS011;49288;52.194;5.676;2023-09-18T02:20:26;201.60;;;62.65;;
40541;SDS011;49288;52.194;5.676;2023-09-18T02:25:29;191.48;;;61.25;;
40541;SDS011;49288;52.194;5.676;2023-09-18T02:30:32;214.00;;;60.97;;
40541;SDS011;49288;52.194;5.676;2023-09-18T02:35:35;216.40;;;63.60;;
40541;SDS011;49288;52.194;5.676;2023-09-18T02:40:38;199.75;;;59.42;;
40541;SDS011;49288;52.194;5.676;2023-09-18T02:45:41;209.30;;;59.08;;
40541;SDS011;49288;52.194;5.676;2023-09-18T02:50:44;196.63;;;60.33;;
40541;SDS011;49288;52.194;5.676;2023-09-18T02:55:49;200.18;;;58.15;;
40541;SDS011;49288;52.194;5.676;2023-09-18T03:00:53;193.32;;;53.78;;
40541;SDS011;49288;52.194;5.676;2023-09-18T03:06:03;169.02;;;52.63;;
40541;SDS011;49288;52.194;5.676;2023-09-18T03:11:11;170.48;;;56.20;;
40541;SDS011;49288;52.194;5.676;2023-09-18T03:16:15;164.77;;;54.67;;
40541;SDS011;49288;52.194;5.676;2023-09-18T03:21:20;170.05;;;54.35;;
40541;SDS011;49288;52.194;5.676;2023-09-18T03:26:23;161.13;;;51.65;;
40541;SDS011;49288;52.194;5.676;2023-09-18T03:31:26;143.30;;;48.10;;
40541;SDS011;49288;52.194;5.676;2023-09-18T03:36:29;132.32;;;46.15;;
40541;SDS011;49288;52.194;5.676;2023-09-18T03:41:32;121.43;;;44.42;;
40541;SDS011;49288;52.194;5.676;2023-09-18T03:46:37;104.75;;;40.55;;
40541;SDS011;49288;52.194;5.676;2023-09-18T03:51:40;104.10;;;39.42;;
40541;SDS011;49288;52.194;5.676;2023-09-18T03:56:43;116.72;;;40.20;;
40541;SDS011;49288;52.194;5.676;2023-09-18T04:01:46;97.10;;;38.90;;
40541;SDS011;49288;52.194;5.676;2023-09-18T04:06:49;98.20;;;38.95;;
40541;SDS011;49288;52.194;5.676;2023-09-18T04:11:52;83.18;;;36.70;;
40541;SDS011;49288;52.194;5.676;2023-09-18T04:16:57;81.03;;;36.55;;
40541;SDS011;49288;52.194;5.676;2023-09-18T04:22:00;131.88;;;48.47;;
40541;SDS011;49288;52.194;5.676;2023-09-18T04:27:03;136.30;;;50.47;;
40541;SDS011;49288;52.194;5.676;2023-09-18T04:32:06;145.70;;;53.38;;
40541;SDS011;49288;52.194;5.676;2023-09-18T04:37:09;176.57;;;60.28;;
40541;SDS011;49288;52.194;5.676;2023-09-18T04:42:12;142.88;;;46.83;;
40541;SDS011;49288;52.194;5.676;2023-09-18T04:47:15;118.20;;;44.17;;
40541;SDS011;49288;52.194;5.676;2023-09-18T04:52:18;102.30;;;41.00;;
40541;SDS011;49288;52.194;5.676;2023-09-18T04:57:22;103.47;;;39.50;;
40541;SDS011;49288;52.194;5.676;2023-09-18T05:02:24;105.88;;;43.88;;
40541;SDS011;49288;52.194;5.676;2023-09-18T05:07:27;118.32;;;45.85;;
40541;SDS011;49288;52.194;5.676;2023-09-18T05:12:30;73.38;;;27.67;;
40541;SDS011;49288;52.194;5.676;2023-09-18T05:17:41;78.25;;;32.60;;
40541;SDS011;49288;52.194;5.676;2023-09-18T05:22:45;63.38;;;26.77;;
40541;SDS011;49288;52.194;5.676;2023-09-18T05:27:48;73.05;;;29.55;;
40541;SDS011;49288;52.194;5.676;2023-09-18T05:32:57;94.00;;;35.22;;
40541;SDS011;49288;52.194;5.676;2023-09-18T05:38:07;159.48;;;46.42;;
40541;SDS011;49288;52.194;5.676;2023-09-18T05:43:12;154.00;;;48.70;;
40541;SDS011;49288;52.194;5.676;2023-09-18T05:48:15;185.00;;;53.28;;
40541;SDS011;49288;52.194;5.676;2023-09-18T05:53:17;211.00;;;54.38;;
40541;SDS011;49288;52.194;5.676;2023-09-18T05:58:20;196.75;;;55.50;;
40541;SDS011;49288;52.194;5.676;2023-09-18T06:03:27;175.40;;;52.42;;
40541;SDS011;49288;52.194;5.676;2023-09-18T06:08:32;187.13;;;52.78;;
40541;SDS011;49288;52.194;5.676;2023-09-18T06:13:36;181.80;;;52.90;;
40541;SDS011;49288;52.194;5.676;2023-09-18T06:18:40;174.23;;;52.70;;
40541;SDS011;49288;52.194;5.676;2023-09-18T06:23:44;175.87;;;51.57;;
40541;SDS011;49288;52.194;5.676;2023-09-18T06:28:46;184.13;;;55.17;;
40541;SDS011;49288;52.194;5.676;2023-09-18T06:33:54;178.48;;;53.53;;
40541;SDS011;49288;52.194;5.676;2023-09-18T06:38:56;168.75;;;50.95;;
40541;SDS011;49288;52.194;5.676;2023-09-18T06:43:59;164.25;;;47.45;;
40541;SDS011;49288;52.194;5.676;2023-09-18T06:49:05;154.07;;;49.42;;
40541;SDS011;49288;52.194;5.676;2023-09-18T06:54:08;116.90;;;39.35;;
40541;SDS011;49288;52.194;5.676;2023-09-18T06:59:11;87.60;;;32.30;;
40541;SDS011;49288;52.194;5.676;2023-09-18T07:04:14;93.87;;;32.80;;
40541;SDS011;49288;52.194;5.676;2023-09-18T07:09:17;113.97;;;39.83;;
40541;SDS011;49288;52.194;5.676;2023-09-18T07:14:20;103.05;;;37.75;;
40541;SDS011;49288;52.194;5.676;2023-09-18T07:19:23;90.43;;;30.92;;
40541;SDS011;49288;52.194;5.676;2023-09-18T07:24:26;43.90;;;21.58;;
40541;SDS011;49288;52.194;5.676;2023-09-18T07:29:28;40.47;;;19.02;;
40541;SDS011;49288;52.194;5.676;2023-09-18T07:34:31;35.55;;;18.30;;
40541;SDS011;49288;52.194;5.676;2023-09-18T07:39:34;49.35;;;23.52;;
40541;SDS011;49288;52.194;5.676;2023-09-18T07:44:38;37.05;;;19.90;;
40541;SDS011;49288;52.194;5.676;2023-09-18T07:49:41;33.72;;;16.05;;
40541;SDS011;49288;52.194;5.676;2023-09-18T07:54:44;31.95;;;14.57;;
40541;SDS011;49288;52.194;5.676;2023-09-18T07:59:46;36.70;;;17.98;;
40541;SDS011;49288;52.194;5.676;2023-09-18T08:04:50;35.00;;;17.80;;
40541;SDS011;49288;52.194;5.676;2023-09-18T08:09:54;28.23;;;15.93;;
40541;SDS011;49288;52.194;5.676;2023-09-18T08:14:57;27.60;;;15.05;;
40541;SDS011;49288;52.194;5.676;2023-09-18T08:20:01;35.00;;;18.10;;
40541;SDS011;49288;52.194;5.676;2023-09-18T08:25:09;21.50;;;12.45;;
40541;SDS011;49288;52.194;5.676;2023-09-18T08:30:13;24.77;;;13.00;;
40541;SDS011;49288;52.194;5.676;2023-09-18T08:35:17;21.98;;;11.93;;
40541;SDS011;49288;52.194;5.676;2023-09-18T08:40:19;28.08;;;12.48;;
40541;SDS011;49288;52.194;5.676;2023-09-18T08:45:23;20.50;;;12.35;;
40541;SDS011;49288;52.194;5.676;2023-09-18T08:50:31;29.17;;;14.43;;
40541;SDS011;49288;52.194;5.676;2023-09-18T08:55:35;20.33;;;12.35;;
40541;SDS011;49288;52.194;5.676;2023-09-18T09:00:38;20.02;;;11.23;;
40541;SDS011;49288;52.194;5.676;2023-09-18T09:05:41;22.42;;;9.50;;
40541;SDS011;49288;52.194;5.676;2023-09-18T09:10:44;16.20;;;8.95;;
40541;SDS011;49288;52.194;5.676;2023-09-18T09:15:47;15.00;;;8.15;;
40541;SDS011;49288;52.194;5.676;2023-09-18T09:20:52;19.92;;;9.43;;
40541;SDS011;49288;52.194;5.676;2023-09-18T09:26:21;17.25;;;8.02;;
40541;SDS011;49288;52.194;5.676;2023-09-18T09:36:30;10.50;;;6.72;;
40541;SDS011;49288;52.194;5.676;2023-09-18T09:41:33;13.67;;;6.93;;
40541;SDS011;49288;52.194;5.676;2023-09-18T09:46:36;10.93;;;6.50;;
40541;SDS011;49288;52.194;5.676;2023-09-18T09:51:39;13.77;;;6.68;;
40541;SDS011;49288;52.194;5.676;2023-09-18T09:56:45;14.30;;;5.95;;
40541;SDS011;49288;52.194;5.676;2023-09-18T10:01:50;12.85;;;6.13;;
40541;SDS011;49288;52.194;5.676;2023-09-18T10:07:07;17.00;;;6.18;;
40541;SDS011;49288;52.194;5.676;2023-09-18T10:12:11;11.70;;;6.10;;
40541;SDS011;49288;52.194;5.676;2023-09-18T10:17:16;12.27;;;4.93;;
40541;SDS011;49288;52.194;5.676;2023-09-18T10:27:40;13.73;;;5.45;;
40541;SDS011;49288;52.194;5.676;2023-09-18T10:32:44;10.02;;;5.05;;
40541;SDS011;49288;52.194;5.676;2023-09-18T10:37:50;9.93;;;4.85;;
40541;SDS011;49288;52.194;5.676;2023-09-18T10:42:56;15.43;;;5.18;;
40541;SDS011;49288;52.194;5.676;2023-09-18T10:48:00;12.50;;;5.93;;
40541;SDS011;49288;52.194;5.676;2023-09-18T10:58:06;12.95;;;7.20;;
40541;SDS011;49288;52.194;5.676;2023-09-18T11:03:10;13.23;;;8.07;;
40541;SDS011;49288;52.194;5.676;2023-09-18T11:08:33;18.42;;;8.80;;
40541;SDS011;49288;52.194;5.676;2023-09-18T11:13:41;16.67;;;9.50;;
40541;SDS011;49288;52.194;5.676;2023-09-18T11:18:47;18.40;;;9.50;;
40541;SDS011;49288;52.194;5.676;2023-09-18T11:24:02;15.27;;;8.35;;
40541;SDS011;49288;52.194;5.676;2023-09-18T11:29:26;19.20;;;9.82;;
40541;SDS011;49288;52.194;5.676;2023-09-18T11:34:30;18.50;;;9.20;;
40541;SDS011;49288;52.194;5.676;2023-09-18T11:39:38;18.90;;;9.73;;
40541;SDS011;49288;52.194;5.676;2023-09-18T11:44:42;14.18;;;10.45;;
40541;SDS011;49288;52.194;5.676;2023-09-18T11:49:53;17.05;;;9.73;;
40541;SDS011;49288;52.194;5.676;2023-09-18T11:54:59;16.30;;;9.65;;
40541;SDS011;49288;52.194;5.676;2023-09-18T12:00:03;14.38;;;9.35;;
40541;SDS011;49288;52.194;5.676;2023-09-18T12:05:14;16.67;;;10.00;;
40541;SDS011;49288;52.194;5.676;2023-09-18T12:10:18;12.65;;;8.30;;
40541;SDS011;49288;52.194;5.676;2023-09-18T12:15:23;14.52;;;6.50;;
40541;SDS011;49288;52.194;5.676;2023-09-18T12:20:26;11.98;;;6.03;;
40541;SDS011;49288;52.194;5.676;2023-09-18T12:25:29;17.48;;;6.07;;
40541;SDS011;49288;52.194;5.676;2023-09-18T12:30:32;10.95;;;5.95;;
40541;SDS011;49288;52.194;5.676;2023-09-18T12:35:36;9.80;;;5.15;;
40541;SDS011;49288;52.194;5.676;2023-09-18T12:40:40;12.32;;;5.63;;
40541;SDS011;49288;52.194;5.676;2023-09-18T12:45:43;20.90;;;6.53;;
40541;SDS011;49288;52.194;5.676;2023-09-18T12:50:52;11.35;;;5.80;;
40541;SDS011;49288;52.194;5.676;2023-09-18T12:56:04;13.93;;;6.38;;
40541;SDS011;49288;52.194;5.676;2023-09-18T13:01:15;14.10;;;6.50;;
40541;SDS011;49288;52.194;5.676;2023-09-18T13:06:19;14.85;;;7.03;;
40541;SDS011;49288;52.194;5.676;2023-09-18T13:11:22;16.35;;;6.78;;
40541;SDS011;49288;52.194;5.676;2023-09-18T13:21:28;8.73;;;5.13;;
40541;SDS011;49288;52.194;5.676;2023-09-18T13:26:31;11.07;;;5.53;;
40541;SDS011;49288;52.194;5.676;2023-09-18T13:31:34;7.25;;;4.75;;
40541;SDS011;49288;52.194;5.676;2023-09-18T13:36:37;10.82;;;5.35;;
40541;SDS011;49288;52.194;5.676;2023-09-18T13:41:40;9.73;;;5.00;;
40541;SDS011;49288;52.194;5.676;2023-09-18T13:46:43;11.25;;;4.80;;
40541;SDS011;49288;52.194;5.676;2023-09-18T13:51:46;12.73;;;4.80;;
40541;SDS011;49288;52.194;5.676;2023-09-18T13:56:49;12.23;;;4.63;;
40541;SDS011;49288;52.194;5.676;2023-09-18T14:01:52;14.73;;;4.55;;
40541;SDS011;49288;52.194;5.676;2023-09-18T14:06:55;9.68;;;4.28;;
40541;SDS011;49288;52.194;5.676;2023-09-18T14:11:58;12.13;;;4.10;;
40541;SDS011;49288;52.194;5.676;2023-09-18T14:17:01;11.38;;;4.40;;
40541;SDS011;49288;52.194;5.676;2023-09-18T14:22:06;11.23;;;4.32;;
40541;SDS011;49288;52.194;5.676;2023-09-18T14:27:09;8.82;;;4.15;;
40541;SDS011;49288;52.194;5.676;2023-09-18T14:32:14;10.98;;;4.10;;
40541;SDS011;49288;52.194;5.676;2023-09-18T14:37:17;7.55;;;4.07;;
40541;SDS011;49288;52.194;5.676;2023-09-18T14:42:20;11.57;;;4.15;;
40541;SDS011;49288;52.194;5.676;2023-09-18T14:47:22;9.70;;;3.50;;
40541;SDS011;49288;52.194;5.676;2023-09-18T14:52:26;9.25;;;4.28;;
40541;SDS011;49288;52.194;5.676;2023-09-18T14:57:29;10.10;;;3.83;;
40541;SDS011;49288;52.194;5.676;2023-09-18T15:02:31;7.40;;;3.70;;
40541;SDS011;49288;52.194;5.676;2023-09-18T15:07:36;11.63;;;4.10;;
40541;SDS011;49288;52.194;5.676;2023-09-18T15:12:39;7.30;;;3.72;;
40541;SDS011;49288;52.194;5.676;2023-09-18T15:17:43;8.15;;;4.10;;
40541;SDS011;49288;52.194;5.676;2023-09-18T15:22:46;15.18;;;5.47;;
40541;SDS011;49288;52.194;5.676;2023-09-18T15:32:53;9.63;;;4.75;;
40541;SDS011;49288;52.194;5.676;2023-09-18T15:37:56;9.88;;;3.78;;
40541;SDS011;49288;52.194;5.676;2023-09-18T15:42:59;10.37;;;3.20;;
40541;SDS011;49288;52.194;5.676;2023-09-18T15:48:02;4.57;;;2.47;;
40541;SDS011;49288;52.194;5.676;2023-09-18T15:53:06;5.95;;;2.35;;
40541;SDS011;49288;52.194;5.676;2023-09-18T15:58:09;4.83;;;2.40;;
40541;SDS011;49288;52.194;5.676;2023-09-18T16:08:15;4.30;;;2.37;;
40541;SDS011;49288;52.194;5.676;2023-09-18T16:13:18;7.75;;;2.45;;
40541;SDS011;49288;52.194;5.676;2023-09-18T16:18:21;6.15;;;2.60;;
40541;SDS011;49288;52.194;5.676;2023-09-18T16:23:24;7.03;;;2.50;;
40541;SDS011;49288;52.194;5.676;2023-09-18T16:28:27;5.18;;;2.55;;
40541;SDS011;49288;52.194;5.676;2023-09-18T16:33:29;3.55;;;2.28;;
40541;SDS011;49288;52.194;5.676;2023-09-18T16:38:32;8.83;;;2.60;;
40541;SDS011;49288;52.194;5.676;2023-09-18T16:43:42;5.45;;;2.50;;
40541;SDS011;49288;52.194;5.676;2023-09-18T16:48:45;6.13;;;2.35;;
40541;SDS011;49288;52.194;5.676;2023-09-18T16:53:48;9.23;;;3.38;;
40541;SDS011;49288;52.194;5.676;2023-09-18T16:58:52;10.85;;;3.05;;
40541;SDS011;49288;52.194;5.676;2023-09-18T17:03:55;6.05;;;2.90;;
40541;SDS011;49288;52.194;5.676;2023-09-18T17:08:58;7.10;;;3.03;;
40541;SDS011;49288;52.194;5.676;2023-09-18T17:14:01;5.43;;;3.35;;
40541;SDS011;49288;52.194;5.676;2023-09-18T17:19:04;4.75;;;3.20;;
40541;SDS011;49288;52.194;5.676;2023-09-18T17:24:07;9.00;;;2.95;;
40541;SDS011;49288;52.194;5.676;2023-09-18T17:29:10;10.60;;;3.88;;
40541;SDS011;49288;52.194;5.676;2023-09-18T17:34:13;7.22;;;3.30;;
40541;SDS011;49288;52.194;5.676;2023-09-18T17:39:16;7.63;;;4.25;;
40541;SDS011;49288;52.194;5.676;2023-09-18T17:44:19;6.20;;;3.58;;
40541;SDS011;49288;52.194;5.676;2023-09-18T17:49:22;9.68;;;3.78;;
40541;SDS011;49288;52.194;5.676;2023-09-18T17:54:26;11.23;;;3.60;;
40541;SDS011;49288;52.194;5.676;2023-09-18T17:59:29;5.80;;;3.65;;
40541;SDS011;49288;52.194;5.676;2023-09-18T18:04:33;9.10;;;4.27;;
40541;SDS011;49288;52.194;5.676;2023-09-18T18:09:37;12.70;;;4.47;;
40541;SDS011;49288;52.194;5.676;2023-09-18T18:14:40;9.32;;;4.72;;
40541;SDS011;49288;52.194;5.676;2023-09-18T18:19:43;9.18;;;4.47;;
40541;SDS011;49288;52.194;5.676;2023-09-18T18:24:46;14.02;;;4.15;;
40541;SDS011;49288;52.194;5.676;2023-09-18T18:29:49;8.88;;;4.38;;
40541;SDS011;49288;52.194;5.676;2023-09-18T18:35:00;10.35;;;4.05;;
40541;SDS011;49288;52.194;5.676;2023-09-18T18:40:02;9.30;;;4.25;;
40541;SDS011;49288;52.194;5.676;2023-09-18T18:45:09;7.75;;;4.43;;
40541;SDS011;49288;52.194;5.676;2023-09-18T18:50:11;8.48;;;3.72;;
40541;SDS011;49288;52.194;5.676;2023-09-18T18:55:14;10.38;;;4.13;;
40541;SDS011;49288;52.194;5.676;2023-09-18T19:00:21;8.52;;;4.22;;
40541;SDS011;49288;52.194;5.676;2023-09-18T19:05:23;10.40;;;4.13;;
40541;SDS011;49288;52.194;5.676;2023-09-18T19:10:26;8.93;;;3.38;;
40541;SDS011;49288;52.194;5.676;2023-09-18T19:15:29;10.10;;;3.25;;
40541;SDS011;49288;52.194;5.676;2023-09-18T19:25:44;14.55;;;3.50;;
40541;SDS011;49288;52.194;5.676;2023-09-18T19:30:51;9.38;;;3.30;;
40541;SDS011;49288;52.194;5.676;2023-09-18T19:35:59;11.65;;;3.13;;
40541;SDS011;49288;52.194;5.676;2023-09-18T19:41:02;10.73;;;3.15;;
40541;SDS011;49288;52.194;5.676;2023-09-18T19:46:08;14.00;;;3.25;;
40541;SDS011;49288;52.194;5.676;2023-09-18T19:51:13;23.30;;;3.55;;
40541;SDS011;49288;52.194;5.676;2023-09-18T19:56:16;11.90;;;3.55;;
40541;SDS011;49288;52.194;5.676;2023-09-18T20:01:19;13.55;;;3.25;;
40541;SDS011;49288;52.194;5.676;2023-09-18T20:06:22;16.88;;;4.00;;
40541;SDS011;49288;52.194;5.676;2023-09-18T20:11:25;15.75;;;4.20;;
40541;SDS011;49288;52.194;5.676;2023-09-18T20:16:28;18.98;;;3.78;;
40541;SDS011;49288;52.194;5.676;2023-09-18T20:21:31;14.27;;;3.60;;
40541;SDS011;49288;52.194;5.676;2023-09-18T20:26:33;20.67;;;4.82;;
40541;SDS011;49288;52.194;5.676;2023-09-18T20:31:36;11.27;;;4.05;;
40541;SDS011;49288;52.194;5.676;2023-09-18T20:36:40;17.07;;;3.67;;
40541;SDS011;49288;52.194;5.676;2023-09-18T20:41:44;21.92;;;4.07;;
40541;SDS011;49288;52.194;5.676;2023-09-18T20:46:47;17.00;;;3.70;;
40541;SDS011;49288;52.194;5.676;2023-09-18T20:51:49;13.00;;;3.72;;
40541;SDS011;49288;52.194;5.676;2023-09-18T20:56:53;13.10;;;3.10;;
40541;SDS011;49288;52.194;5.676;2023-09-18T21:01:57;12.65;;;3.65;;
40541;SDS011;49288;52.194;5.676;2023-09-18T21:07:00;14.82;;;3.13;;
40541;SDS011;49288;52.194;5.676;2023-09-18T21:12:03;11.32;;;2.70;;
40541;SDS011;49288;52.194;5.676;2023-09-18T21:17:09;10.57;;;3.25;;
40541;SDS011;49288;52.194;5.676;2023-09-18T21:22:16;12.43;;;3.60;;
40541;SDS011;49288;52.194;5.676;2023-09-18T21:27:19;15.77;;;3.33;;
40541;SDS011;49288;52.194;5.676;2023-09-18T21:32:22;11.18;;;3.50;;
40541;SDS011;49288;52.194;5.676;2023-09-18T21:37:25;12.20;;;3.13;;
40541;SDS011;49288;52.194;5.676;2023-09-18T21:42:28;15.45;;;3.20;;
40541;SDS011;49288;52.194;5.676;2023-09-18T21:47:31;12.52;;;4.40;;
40541;SDS011;49288;52.194;5.676;2023-09-18T21:52:35;15.40;;;3.97;;
40541;SDS011;49288;52.194;5.676;2023-09-18T21:57:38;13.00;;;3.75;;
40541;SDS011;49288;52.194;5.676;2023-09-18T22:02:41;15.77;;;3.55;;
40541;SDS011;49288;52.194;5.676;2023-09-18T22:07:44;21.00;;;5.80;;
40541;SDS011;49288;52.194;5.676;2023-09-18T22:12:47;27.70;;;4.93;;
40541;SDS011;49288;52.194;5.676;2023-09-18T22:17:51;15.98;;;3.40;;
40541;SDS011;49288;52.194;5.676;2023-09-18T22:22:55;20.55;;;4.60;;
40541;SDS011;49288;52.194;5.676;2023-09-18T22:27:59;23.40;;;4.57;;
40541;SDS011;49288;52.194;5.676;2023-09-18T22:33:03;16.27;;;3.15;;
40541;SDS011;49288;52.194;5.676;2023-09-18T22:38:13;18.23;;;3.58;;
40541;SDS011;49288;52.194;5.676;2023-09-18T22:54:51;11.70;;;3.35;;
40541;SDS011;49288;52.194;5.676;2023-09-18T22:59:55;15.82;;;3.50;;
40541;SDS011;49288;52.194;5.676;2023-09-18T23:04:59;15.82;;;3.38;;
40541;SDS011;49288;52.194;5.676;2023-09-18T23:10:04;15.90;;;3.17;;
40541;SDS011;49288;52.194;5.676;2023-09-18T23:15:10;12.18;;;3.22;;
40541;SDS011;49288;52.194;5.676;2023-09-18T23:20:14;12.25;;;3.20;;
40541;SDS011;49288;52.194;5.676;2023-09-18T23:25:17;14.40;;;3.30;;
40541;SDS011;49288;52.194;5.676;2023-09-18T23:30:22;13.63;;;3.47;;
40541;SDS011;49288;52.194;5.676;2023-09-18T23:35:25;17.75;;;3.50;;
40541;SDS011;49288;52.194;5.676;2023-09-18T23:40:30;17.67;;;3.80;;
40541;SDS011;49288;52.194;5.676;2023-09-18T23:45:36;13.35;;;4.30;;
40541;SDS011;49288;52.194;5.676;2023-09-18T23:50:46;15.38;;;3.67;;
40541;SDS011;49288;52.194;5.676;2023-09-18T23:55:51;15.05;;;4.40;;
